sensor_id;sensor_type;location;lat;lon;timestamp;P1;durP1;ratioP1;P2;durP2;ratioP2
5841;SDS011;2947;52.276;9.946;2023-02-22T00:01:28;42.97;;;17.17;;
5841;SDS011;2947;52.276;9.946;2023-02-22T00:04:03;42.03;;;16.77;;
5841;SDS011;2947;52.276;9.946;2023-02-22T00:06:30;41.57;;;16.67;;
5841;SDS011;2947;52.276;9.946;2023-02-22T00:08:57;43.70;;;15.40;;
5841;SDS011;2947;52.276;9.946;2023-02-22T00:11:23;37.90;;;14.70;;
5841;SDS011;2947;52.276;9.946;2023-02-22T00:13:49;44.87;;;15.70;;
5841;SDS011;2947;52.276;9.946;2023-02-22T00:16:16;43.77;;;17.07;;
5841;SDS011;2947;52.276;9.946;2023-02-22T00:18:45;43.37;;;16.50;;
5841;SDS011;2947;52.276;9.946;2023-02-22T00:21:12;38.60;;;16.33;;
5841;SDS011;2947;52.276;9.946;2023-02-22T00:23:40;37.57;;;15.57;;
5841;SDS011;2947;52.276;9.946;2023-02-22T00:26:14;37.40;;;15.30;;
5841;SDS011;2947;52.276;9.946;2023-02-22T00:28:47;35.17;;;14.97;;
5841;SDS011;2947;52.276;9.946;2023-02-22T00:31:17;41.33;;;14.63;;
5841;SDS011;2947;52.276;9.946;2023-02-22T00:33:44;42.27;;;15.10;;
5841;SDS011;2947;52.276;9.946;2023-02-22T00:36:10;35.80;;;14.60;;
5841;SDS011;2947;52.276;9.946;2023-02-22T00:38:37;39.13;;;15.47;;
5841;SDS011;2947;52.276;9.946;2023-02-22T00:41:05;42.87;;;14.23;;
5841;SDS011;2947;52.276;9.946;2023-02-22T00:43:31;36.77;;;14.60;;
5841;SDS011;2947;52.276;9.946;2023-02-22T00:45:57;38.60;;;15.67;;
5841;SDS011;2947;52.276;9.946;2023-02-22T00:48:23;40.60;;;14.40;;
5841;SDS011;2947;52.276;9.946;2023-02-22T00:50:49;45.10;;;16.43;;
5841;SDS011;2947;52.276;9.946;2023-02-22T00:53:19;37.40;;;14.90;;
5841;SDS011;2947;52.276;9.946;2023-02-22T00:55:46;36.70;;;14.13;;
5841;SDS011;2947;52.276;9.946;2023-02-22T00:58:11;40.10;;;14.70;;
5841;SDS011;2947;52.276;9.946;2023-02-22T01:00:38;37.43;;;15.47;;
5841;SDS011;2947;52.276;9.946;2023-02-22T01:03:06;41.03;;;15.70;;
5841;SDS011;2947;52.276;9.946;2023-02-22T01:05:35;38.83;;;14.57;;
5841;SDS011;2947;52.276;9.946;2023-02-22T01:08:02;34.50;;;13.33;;
5841;SDS011;2947;52.276;9.946;2023-02-22T01:10:30;41.50;;;14.90;;
5841;SDS011;2947;52.276;9.946;2023-02-22T01:12:57;35.67;;;13.97;;
5841;SDS011;2947;52.276;9.946;2023-02-22T01:15:24;35.87;;;14.00;;
5841;SDS011;2947;52.276;9.946;2023-02-22T01:17:54;38.43;;;13.87;;
5841;SDS011;2947;52.276;9.946;2023-02-22T01:20:22;34.80;;;14.00;;
5841;SDS011;2947;52.276;9.946;2023-02-22T01:22:53;37.23;;;15.43;;
5841;SDS011;2947;52.276;9.946;2023-02-22T01:25:22;31.50;;;13.70;;
5841;SDS011;2947;52.276;9.946;2023-02-22T01:27:51;36.13;;;14.77;;
5841;SDS011;2947;52.276;9.946;2023-02-22T01:30:22;29.50;;;13.90;;
5841;SDS011;2947;52.276;9.946;2023-02-22T01:32:53;39.60;;;13.43;;
5841;SDS011;2947;52.276;9.946;2023-02-22T01:35:21;34.73;;;13.60;;
5841;SDS011;2947;52.276;9.946;2023-02-22T01:37:50;35.67;;;14.87;;
5841;SDS011;2947;52.276;9.946;2023-02-22T01:40:21;39.00;;;15.27;;
5841;SDS011;2947;52.276;9.946;2023-02-22T01:42:54;40.50;;;13.80;;
5841;SDS011;2947;52.276;9.946;2023-02-22T01:50:38;37.30;;;14.70;;
5841;SDS011;2947;52.276;9.946;2023-02-22T01:53:10;35.17;;;13.67;;
5841;SDS011;2947;52.276;9.946;2023-02-22T01:55:39;36.47;;;13.20;;
5841;SDS011;2947;52.276;9.946;2023-02-22T01:58:06;35.00;;;14.33;;
5841;SDS011;2947;52.276;9.946;2023-02-22T02:00:33;47.93;;;14.00;;
5841;SDS011;2947;52.276;9.946;2023-02-22T02:03:00;38.33;;;14.07;;
5841;SDS011;2947;52.276;9.946;2023-02-22T02:05:36;37.20;;;13.17;;
5841;SDS011;2947;52.276;9.946;2023-02-22T02:08:37;41.83;;;15.63;;
5841;SDS011;2947;52.276;9.946;2023-02-22T02:11:02;31.93;;;13.43;;
5841;SDS011;2947;52.276;9.946;2023-02-22T02:13:31;36.20;;;14.00;;
5841;SDS011;2947;52.276;9.946;2023-02-22T02:15:57;41.13;;;14.30;;
5841;SDS011;2947;52.276;9.946;2023-02-22T02:18:23;33.40;;;12.33;;
5841;SDS011;2947;52.276;9.946;2023-02-22T02:20:56;33.20;;;13.60;;
5841;SDS011;2947;52.276;9.946;2023-02-22T02:35:43;36.10;;;13.23;;
5841;SDS011;2947;52.276;9.946;2023-02-22T02:41:04;36.40;;;13.70;;
5841;SDS011;2947;52.276;9.946;2023-02-22T02:43:52;35.50;;;14.87;;
5841;SDS011;2947;52.276;9.946;2023-02-22T02:46:29;31.87;;;13.57;;
5841;SDS011;2947;52.276;9.946;2023-02-22T02:49:12;33.70;;;12.93;;
5841;SDS011;2947;52.276;9.946;2023-02-22T02:51:45;31.03;;;12.73;;
5841;SDS011;2947;52.276;9.946;2023-02-22T02:54:17;30.50;;;12.80;;
5841;SDS011;2947;52.276;9.946;2023-02-22T02:56:44;33.20;;;12.90;;
5841;SDS011;2947;52.276;9.946;2023-02-22T03:11:04;32.17;;;12.57;;
5841;SDS011;2947;52.276;9.946;2023-02-22T03:19:27;31.80;;;12.90;;
5841;SDS011;2947;52.276;9.946;2023-02-22T03:22:15;29.23;;;12.27;;
5841;SDS011;2947;52.276;9.946;2023-02-22T03:27:44;27.93;;;11.70;;
5841;SDS011;2947;52.276;9.946;2023-02-22T03:30:18;32.77;;;12.27;;
5841;SDS011;2947;52.276;9.946;2023-02-22T03:32:51;34.20;;;12.10;;
5841;SDS011;2947;52.276;9.946;2023-02-22T03:35:24;31.97;;;12.47;;
5841;SDS011;2947;52.276;9.946;2023-02-22T03:37:57;32.17;;;13.57;;
5841;SDS011;2947;52.276;9.946;2023-02-22T03:40:27;36.60;;;13.53;;
5841;SDS011;2947;52.276;9.946;2023-02-22T03:43:04;38.03;;;14.27;;
5841;SDS011;2947;52.276;9.946;2023-02-22T03:45:34;34.33;;;14.27;;
5841;SDS011;2947;52.276;9.946;2023-02-22T03:48:22;34.00;;;12.57;;
5841;SDS011;2947;52.276;9.946;2023-02-22T03:51:10;29.50;;;12.03;;
5841;SDS011;2947;52.276;9.946;2023-02-22T03:53:40;38.00;;;12.73;;
5841;SDS011;2947;52.276;9.946;2023-02-22T03:56:09;31.33;;;12.67;;
5841;SDS011;2947;52.276;9.946;2023-02-22T03:58:47;28.87;;;11.70;;
5841;SDS011;2947;52.276;9.946;2023-02-22T04:01:15;31.10;;;11.70;;
5841;SDS011;2947;52.276;9.946;2023-02-22T04:03:41;33.60;;;13.00;;
5841;SDS011;2947;52.276;9.946;2023-02-22T04:06:08;37.00;;;12.30;;
5841;SDS011;2947;52.276;9.946;2023-02-22T04:08:34;31.80;;;11.30;;
5841;SDS011;2947;52.276;9.946;2023-02-22T04:11:00;32.17;;;12.40;;
5841;SDS011;2947;52.276;9.946;2023-02-22T04:13:26;33.37;;;12.30;;
5841;SDS011;2947;52.276;9.946;2023-02-22T04:15:52;39.00;;;11.70;;
5841;SDS011;2947;52.276;9.946;2023-02-22T04:18:18;31.43;;;12.17;;
5841;SDS011;2947;52.276;9.946;2023-02-22T04:20:43;29.40;;;11.97;;
5841;SDS011;2947;52.276;9.946;2023-02-22T04:23:09;31.37;;;12.63;;
5841;SDS011;2947;52.276;9.946;2023-02-22T04:25:35;31.63;;;11.33;;
5841;SDS011;2947;52.276;9.946;2023-02-22T04:28:01;37.17;;;12.40;;
5841;SDS011;2947;52.276;9.946;2023-02-22T04:30:27;28.53;;;11.40;;
5841;SDS011;2947;52.276;9.946;2023-02-22T04:32:54;31.33;;;11.57;;
5841;SDS011;2947;52.276;9.946;2023-02-22T04:35:20;36.10;;;11.20;;
5841;SDS011;2947;52.276;9.946;2023-02-22T04:37:47;26.70;;;11.77;;
5841;SDS011;2947;52.276;9.946;2023-02-22T04:40:12;30.97;;;10.90;;
5841;SDS011;2947;52.276;9.946;2023-02-22T04:42:40;26.87;;;12.00;;
5841;SDS011;2947;52.276;9.946;2023-02-22T04:45:06;29.50;;;10.33;;
5841;SDS011;2947;52.276;9.946;2023-02-22T04:47:34;30.60;;;10.93;;
5841;SDS011;2947;52.276;9.946;2023-02-22T04:50:06;31.20;;;11.23;;
5841;SDS011;2947;52.276;9.946;2023-02-22T04:52:34;26.57;;;10.50;;
5841;SDS011;2947;52.276;9.946;2023-02-22T04:55:00;30.83;;;11.03;;
5841;SDS011;2947;52.276;9.946;2023-02-22T04:57:26;26.47;;;9.90;;
5841;SDS011;2947;52.276;9.946;2023-02-22T04:59:52;30.20;;;10.67;;
5841;SDS011;2947;52.276;9.946;2023-02-22T05:02:18;25.10;;;10.40;;
5841;SDS011;2947;52.276;9.946;2023-02-22T05:04:44;29.07;;;10.30;;
5841;SDS011;2947;52.276;9.946;2023-02-22T05:07:09;27.27;;;10.00;;
5841;SDS011;2947;52.276;9.946;2023-02-22T05:09:35;28.53;;;10.30;;
5841;SDS011;2947;52.276;9.946;2023-02-22T05:12:01;24.60;;;9.40;;
5841;SDS011;2947;52.276;9.946;2023-02-22T05:14:26;27.60;;;11.00;;
5841;SDS011;2947;52.276;9.946;2023-02-22T05:16:53;29.70;;;10.40;;
5841;SDS011;2947;52.276;9.946;2023-02-22T05:19:20;31.10;;;11.90;;
5841;SDS011;2947;52.276;9.946;2023-02-22T05:21:46;27.20;;;11.37;;
5841;SDS011;2947;52.276;9.946;2023-02-22T05:24:12;31.40;;;11.73;;
5841;SDS011;2947;52.276;9.946;2023-02-22T05:26:38;29.20;;;10.50;;
5841;SDS011;2947;52.276;9.946;2023-02-22T05:29:04;26.13;;;10.60;;
5841;SDS011;2947;52.276;9.946;2023-02-22T05:31:30;23.63;;;11.53;;
5841;SDS011;2947;52.276;9.946;2023-02-22T05:33:57;26.13;;;10.07;;
5841;SDS011;2947;52.276;9.946;2023-02-22T05:36:23;29.73;;;10.90;;
5841;SDS011;2947;52.276;9.946;2023-02-22T05:38:49;28.73;;;11.20;;
5841;SDS011;2947;52.276;9.946;2023-02-22T05:41:16;29.17;;;10.70;;
5841;SDS011;2947;52.276;9.946;2023-02-22T05:43:42;33.17;;;12.53;;
5841;SDS011;2947;52.276;9.946;2023-02-22T05:46:09;31.30;;;11.27;;
5841;SDS011;2947;52.276;9.946;2023-02-22T05:48:34;24.40;;;9.87;;
5841;SDS011;2947;52.276;9.946;2023-02-22T05:51:00;29.70;;;11.13;;
5841;SDS011;2947;52.276;9.946;2023-02-22T05:53:28;29.47;;;11.37;;
5841;SDS011;2947;52.276;9.946;2023-02-22T05:55:53;28.23;;;12.30;;
5841;SDS011;2947;52.276;9.946;2023-02-22T05:58:19;32.30;;;12.13;;
5841;SDS011;2947;52.276;9.946;2023-02-22T06:00:45;28.30;;;11.67;;
5841;SDS011;2947;52.276;9.946;2023-02-22T06:03:11;26.53;;;10.60;;
5841;SDS011;2947;52.276;9.946;2023-02-22T06:05:37;27.77;;;10.70;;
5841;SDS011;2947;52.276;9.946;2023-02-22T06:08:04;29.07;;;11.07;;
5841;SDS011;2947;52.276;9.946;2023-02-22T06:10:31;31.50;;;10.60;;
5841;SDS011;2947;52.276;9.946;2023-02-22T06:12:57;30.70;;;10.50;;
5841;SDS011;2947;52.276;9.946;2023-02-22T06:15:25;26.50;;;10.63;;
5841;SDS011;2947;52.276;9.946;2023-02-22T06:17:52;25.50;;;10.17;;
5841;SDS011;2947;52.276;9.946;2023-02-22T06:20:20;28.87;;;10.23;;
5841;SDS011;2947;52.276;9.946;2023-02-22T06:22:48;33.73;;;12.20;;
5841;SDS011;2947;52.276;9.946;2023-02-22T06:25:21;31.10;;;10.83;;
5841;SDS011;2947;52.276;9.946;2023-02-22T06:27:49;31.63;;;11.97;;
5841;SDS011;2947;52.276;9.946;2023-02-22T06:30:17;30.80;;;10.70;;
5841;SDS011;2947;52.276;9.946;2023-02-22T06:32:45;29.20;;;11.27;;
5841;SDS011;2947;52.276;9.946;2023-02-22T06:35:11;32.80;;;12.27;;
5841;SDS011;2947;52.276;9.946;2023-02-22T06:37:38;37.53;;;13.07;;
5841;SDS011;2947;52.276;9.946;2023-02-22T06:40:04;42.73;;;15.20;;
5841;SDS011;2947;52.276;9.946;2023-02-22T06:42:30;33.17;;;12.60;;
5841;SDS011;2947;52.276;9.946;2023-02-22T06:44:56;33.67;;;11.53;;
5841;SDS011;2947;52.276;9.946;2023-02-22T06:47:21;34.80;;;11.00;;
5841;SDS011;2947;52.276;9.946;2023-02-22T06:49:51;22.13;;;9.67;;
5841;SDS011;2947;52.276;9.946;2023-02-22T06:52:21;28.93;;;10.90;;
5841;SDS011;2947;52.276;9.946;2023-02-22T06:54:48;26.57;;;11.03;;
5841;SDS011;2947;52.276;9.946;2023-02-22T06:57:14;20.77;;;9.90;;
5841;SDS011;2947;52.276;9.946;2023-02-22T06:59:41;23.47;;;10.57;;
5841;SDS011;2947;52.276;9.946;2023-02-22T07:02:08;26.93;;;11.03;;
5841;SDS011;2947;52.276;9.946;2023-02-22T07:04:36;24.87;;;9.37;;
5841;SDS011;2947;52.276;9.946;2023-02-22T07:07:02;32.57;;;11.00;;
5841;SDS011;2947;52.276;9.946;2023-02-22T07:09:28;23.80;;;9.90;;
5841;SDS011;2947;52.276;9.946;2023-02-22T07:11:53;26.60;;;10.47;;
5841;SDS011;2947;52.276;9.946;2023-02-22T07:14:21;25.07;;;10.53;;
5841;SDS011;2947;52.276;9.946;2023-02-22T07:16:47;26.93;;;11.47;;
5841;SDS011;2947;52.276;9.946;2023-02-22T07:19:12;23.20;;;10.40;;
5841;SDS011;2947;52.276;9.946;2023-02-22T07:21:38;24.07;;;10.03;;
5841;SDS011;2947;52.276;9.946;2023-02-22T07:24:07;22.00;;;9.77;;
5841;SDS011;2947;52.276;9.946;2023-02-22T07:26:37;20.07;;;8.53;;
5841;SDS011;2947;52.276;9.946;2023-02-22T07:29:04;23.03;;;10.77;;
5841;SDS011;2947;52.276;9.946;2023-02-22T07:31:34;22.23;;;9.07;;
5841;SDS011;2947;52.276;9.946;2023-02-22T07:34:01;18.17;;;8.43;;
5841;SDS011;2947;52.276;9.946;2023-02-22T07:36:27;30.80;;;9.27;;
5841;SDS011;2947;52.276;9.946;2023-02-22T07:38:53;22.10;;;8.77;;
5841;SDS011;2947;52.276;9.946;2023-02-22T07:41:18;21.93;;;9.53;;
5841;SDS011;2947;52.276;9.946;2023-02-22T07:43:44;21.30;;;8.93;;
5841;SDS011;2947;52.276;9.946;2023-02-22T07:46:10;23.43;;;9.90;;
5841;SDS011;2947;52.276;9.946;2023-02-22T07:48:35;21.40;;;8.27;;
5841;SDS011;2947;52.276;9.946;2023-02-22T07:51:01;26.97;;;9.53;;
5841;SDS011;2947;52.276;9.946;2023-02-22T07:53:28;26.93;;;10.60;;
5841;SDS011;2947;52.276;9.946;2023-02-22T07:55:57;19.37;;;9.27;;
5841;SDS011;2947;52.276;9.946;2023-02-22T07:58:30;25.13;;;10.17;;
5841;SDS011;2947;52.276;9.946;2023-02-22T08:00:58;23.77;;;9.20;;
5841;SDS011;2947;52.276;9.946;2023-02-22T08:03:26;30.27;;;9.80;;
5841;SDS011;2947;52.276;9.946;2023-02-22T08:05:52;22.07;;;9.50;;
5841;SDS011;2947;52.276;9.946;2023-02-22T08:08:20;28.27;;;9.90;;
5841;SDS011;2947;52.276;9.946;2023-02-22T08:10:47;20.50;;;9.23;;
5841;SDS011;2947;52.276;9.946;2023-02-22T08:13:15;23.93;;;9.20;;
5841;SDS011;2947;52.276;9.946;2023-02-22T08:15:41;27.23;;;9.50;;
5841;SDS011;2947;52.276;9.946;2023-02-22T08:18:11;21.33;;;10.00;;
5841;SDS011;2947;52.276;9.946;2023-02-22T08:20:40;21.43;;;8.87;;
5841;SDS011;2947;52.276;9.946;2023-02-22T08:23:08;26.23;;;9.60;;
5841;SDS011;2947;52.276;9.946;2023-02-22T08:25:36;30.47;;;9.90;;
5841;SDS011;2947;52.276;9.946;2023-02-22T08:28:07;26.30;;;11.50;;
5841;SDS011;2947;52.276;9.946;2023-02-22T08:30:36;30.10;;;10.70;;
5841;SDS011;2947;52.276;9.946;2023-02-22T08:33:03;28.90;;;11.93;;
5841;SDS011;2947;52.276;9.946;2023-02-22T08:35:29;26.43;;;11.00;;
5841;SDS011;2947;52.276;9.946;2023-02-22T08:37:58;34.23;;;13.20;;
5841;SDS011;2947;52.276;9.946;2023-02-22T08:40:30;26.53;;;11.20;;
5841;SDS011;2947;52.276;9.946;2023-02-22T08:43:00;30.87;;;10.97;;
5841;SDS011;2947;52.276;9.946;2023-02-22T08:45:27;26.03;;;11.27;;
5841;SDS011;2947;52.276;9.946;2023-02-22T08:47:53;23.50;;;10.83;;
5841;SDS011;2947;52.276;9.946;2023-02-22T08:50:23;25.47;;;10.50;;
5841;SDS011;2947;52.276;9.946;2023-02-22T08:52:53;22.47;;;10.10;;
5841;SDS011;2947;52.276;9.946;2023-02-22T08:55:26;19.67;;;9.47;;
5841;SDS011;2947;52.276;9.946;2023-02-22T08:58:00;23.73;;;11.13;;
5841;SDS011;2947;52.276;9.946;2023-02-22T09:00:28;27.10;;;11.10;;
5841;SDS011;2947;52.276;9.946;2023-02-22T09:02:57;25.93;;;11.70;;
5841;SDS011;2947;52.276;9.946;2023-02-22T09:05:25;25.07;;;12.20;;
5841;SDS011;2947;52.276;9.946;2023-02-22T09:07:51;25.83;;;12.20;;
5841;SDS011;2947;52.276;9.946;2023-02-22T09:10:17;26.30;;;12.57;;
5841;SDS011;2947;52.276;9.946;2023-02-22T09:12:50;25.23;;;12.80;;
5841;SDS011;2947;52.276;9.946;2023-02-22T09:15:19;27.80;;;12.80;;
5841;SDS011;2947;52.276;9.946;2023-02-22T09:17:46;29.30;;;11.83;;
5841;SDS011;2947;52.276;9.946;2023-02-22T09:20:16;24.10;;;12.20;;
5841;SDS011;2947;52.276;9.946;2023-02-22T09:22:44;27.00;;;12.20;;
5841;SDS011;2947;52.276;9.946;2023-02-22T09:25:11;23.67;;;10.97;;
5841;SDS011;2947;52.276;9.946;2023-02-22T09:27:37;26.80;;;12.83;;
5841;SDS011;2947;52.276;9.946;2023-02-22T09:30:04;28.73;;;12.63;;
5841;SDS011;2947;52.276;9.946;2023-02-22T09:32:35;26.63;;;13.00;;
5841;SDS011;2947;52.276;9.946;2023-02-22T09:35:02;29.63;;;12.93;;
5841;SDS011;2947;52.276;9.946;2023-02-22T09:37:28;26.23;;;11.90;;
5841;SDS011;2947;52.276;9.946;2023-02-22T09:39:54;23.70;;;11.20;;
5841;SDS011;2947;52.276;9.946;2023-02-22T09:42:25;24.03;;;12.77;;
5841;SDS011;2947;52.276;9.946;2023-02-22T09:45:17;22.03;;;10.73;;
5841;SDS011;2947;52.276;9.946;2023-02-22T09:47:48;25.80;;;12.93;;
5841;SDS011;2947;52.276;9.946;2023-02-22T09:50:22;27.80;;;12.27;;
5841;SDS011;2947;52.276;9.946;2023-02-22T09:52:57;23.87;;;11.63;;
5841;SDS011;2947;52.276;9.946;2023-02-22T09:58:29;20.00;;;11.40;;
5841;SDS011;2947;52.276;9.946;2023-02-22T10:01:42;24.87;;;12.33;;
5841;SDS011;2947;52.276;9.946;2023-02-22T10:09:20;23.47;;;12.67;;
5841;SDS011;2947;52.276;9.946;2023-02-22T10:12:05;22.00;;;11.60;;
5841;SDS011;2947;52.276;9.946;2023-02-22T10:15:04;32.73;;;14.10;;
5841;SDS011;2947;52.276;9.946;2023-02-22T10:26:24;26.20;;;11.97;;
5841;SDS011;2947;52.276;9.946;2023-02-22T10:29:01;24.03;;;11.50;;
5841;SDS011;2947;52.276;9.946;2023-02-22T10:31:49;22.53;;;11.37;;
5841;SDS011;2947;52.276;9.946;2023-02-22T10:34:24;28.23;;;12.23;;
5841;SDS011;2947;52.276;9.946;2023-02-22T10:37:02;23.53;;;13.10;;
5841;SDS011;2947;52.276;9.946;2023-02-22T10:39:50;23.80;;;12.40;;
5841;SDS011;2947;52.276;9.946;2023-02-22T10:42:24;23.70;;;12.00;;
5841;SDS011;2947;52.276;9.946;2023-02-22T10:44:51;25.70;;;12.70;;
5841;SDS011;2947;52.276;9.946;2023-02-22T10:47:17;22.40;;;11.77;;
5841;SDS011;2947;52.276;9.946;2023-02-22T10:49:49;25.40;;;12.57;;
5841;SDS011;2947;52.276;9.946;2023-02-22T10:52:24;24.80;;;11.33;;
5841;SDS011;2947;52.276;9.946;2023-02-22T10:54:58;25.73;;;12.30;;
5841;SDS011;2947;52.276;9.946;2023-02-22T10:57:26;21.30;;;11.43;;
5841;SDS011;2947;52.276;9.946;2023-02-22T11:02:57;21.23;;;10.67;;
5841;SDS011;2947;52.276;9.946;2023-02-22T11:07:52;24.17;;;11.47;;
5841;SDS011;2947;52.276;9.946;2023-02-22T11:10:44;22.50;;;11.70;;
5841;SDS011;2947;52.276;9.946;2023-02-22T11:13:28;23.23;;;11.87;;
5841;SDS011;2947;52.276;9.946;2023-02-22T11:16:25;21.63;;;11.73;;
5841;SDS011;2947;52.276;9.946;2023-02-22T11:19:01;20.43;;;10.90;;
5841;SDS011;2947;52.276;9.946;2023-02-22T11:21:36;21.27;;;10.57;;
5841;SDS011;2947;52.276;9.946;2023-02-22T11:24:07;20.47;;;11.27;;
5841;SDS011;2947;52.276;9.946;2023-02-22T11:31:57;16.03;;;9.40;;
5841;SDS011;2947;52.276;9.946;2023-02-22T11:34:33;16.17;;;8.77;;
5841;SDS011;2947;52.276;9.946;2023-02-22T11:37:14;21.20;;;10.13;;
5841;SDS011;2947;52.276;9.946;2023-02-22T11:39:47;17.97;;;9.53;;
5841;SDS011;2947;52.276;9.946;2023-02-22T11:42:37;16.83;;;8.93;;
5841;SDS011;2947;52.276;9.946;2023-02-22T11:45:13;14.48;;;7.80;;
5841;SDS011;2947;52.276;9.946;2023-02-22T11:47:48;17.63;;;8.63;;
5841;SDS011;2947;52.276;9.946;2023-02-22T11:50:23;14.82;;;7.78;;
5841;SDS011;2947;52.276;9.946;2023-02-22T11:53:10;13.98;;;7.38;;
5841;SDS011;2947;52.276;9.946;2023-02-22T12:01:57;15.90;;;7.68;;
5841;SDS011;2947;52.276;9.946;2023-02-22T12:05:11;14.93;;;8.00;;
5841;SDS011;2947;52.276;9.946;2023-02-22T12:16:17;14.80;;;8.23;;
5841;SDS011;2947;52.276;9.946;2023-02-22T12:21:43;12.43;;;7.47;;
5841;SDS011;2947;52.276;9.946;2023-02-22T12:24:23;15.48;;;7.53;;
5841;SDS011;2947;52.276;9.946;2023-02-22T12:27:00;18.20;;;8.02;;
5841;SDS011;2947;52.276;9.946;2023-02-22T12:32:45;17.98;;;8.25;;
5841;SDS011;2947;52.276;9.946;2023-02-22T12:35:19;15.52;;;7.72;;
5841;SDS011;2947;52.276;9.946;2023-02-22T12:41:19;22.02;;;8.68;;
5841;SDS011;2947;52.276;9.946;2023-02-22T12:44:26;14.55;;;8.38;;
5841;SDS011;2947;52.276;9.946;2023-02-22T12:46:59;15.38;;;7.90;;
5841;SDS011;2947;52.276;9.946;2023-02-22T12:55:08;15.40;;;8.00;;
5841;SDS011;2947;52.276;9.946;2023-02-22T12:58:00;16.15;;;8.73;;
5841;SDS011;2947;52.276;9.946;2023-02-22T13:00:36;14.90;;;8.57;;
5841;SDS011;2947;52.276;9.946;2023-02-22T13:03:39;16.45;;;7.88;;
5841;SDS011;2947;52.276;9.946;2023-02-22T13:08:59;13.98;;;7.78;;
5841;SDS011;2947;52.276;9.946;2023-02-22T13:14:49;14.27;;;7.80;;
5841;SDS011;2947;52.276;9.946;2023-02-22T13:17:36;15.60;;;8.27;;
5841;SDS011;2947;52.276;9.946;2023-02-22T13:20:52;14.00;;;8.18;;
5841;SDS011;2947;52.276;9.946;2023-02-22T13:24:04;13.90;;;7.93;;
5841;SDS011;2947;52.276;9.946;2023-02-22T13:26:47;13.90;;;7.90;;
5841;SDS011;2947;52.276;9.946;2023-02-22T13:29:36;15.73;;;8.05;;
5841;SDS011;2947;52.276;9.946;2023-02-22T13:49:53;13.05;;;7.30;;
5841;SDS011;2947;52.276;9.946;2023-02-22T13:52:27;16.17;;;7.25;;
5841;SDS011;2947;52.276;9.946;2023-02-22T13:54:57;18.58;;;8.27;;
5841;SDS011;2947;52.276;9.946;2023-02-22T13:57:33;13.45;;;7.10;;
5841;SDS011;2947;52.276;9.946;2023-02-22T14:11:04;16.33;;;7.53;;
5841;SDS011;2947;52.276;9.946;2023-02-22T14:16:31;14.57;;;7.72;;
5841;SDS011;2947;52.276;9.946;2023-02-22T14:19:03;13.20;;;6.32;;
5841;SDS011;2947;52.276;9.946;2023-02-22T14:21:37;10.43;;;5.45;;
5841;SDS011;2947;52.276;9.946;2023-02-22T14:24:18;12.63;;;5.75;;
5841;SDS011;2947;52.276;9.946;2023-02-22T14:26:54;9.27;;;5.07;;
5841;SDS011;2947;52.276;9.946;2023-02-22T14:29:28;10.15;;;5.82;;
5841;SDS011;2947;52.276;9.946;2023-02-22T14:32:00;9.65;;;5.72;;
5841;SDS011;2947;52.276;9.946;2023-02-22T14:34:42;8.32;;;4.88;;
5841;SDS011;2947;52.276;9.946;2023-02-22T14:37:25;7.90;;;4.63;;
5841;SDS011;2947;52.276;9.946;2023-02-22T14:43:11;10.93;;;5.07;;
5841;SDS011;2947;52.276;9.946;2023-02-22T14:45:56;8.30;;;4.03;;
5841;SDS011;2947;52.276;9.946;2023-02-22T14:48:26;7.90;;;4.75;;
5841;SDS011;2947;52.276;9.946;2023-02-22T14:51:04;10.05;;;5.10;;
5841;SDS011;2947;52.276;9.946;2023-02-22T14:54:06;12.65;;;4.45;;
5841;SDS011;2947;52.276;9.946;2023-02-22T14:57:22;7.45;;;4.35;;
5841;SDS011;2947;52.276;9.946;2023-02-22T15:02:46;9.77;;;5.35;;
5841;SDS011;2947;52.276;9.946;2023-02-22T15:05:14;8.75;;;4.13;;
5841;SDS011;2947;52.276;9.946;2023-02-22T15:07:57;9.40;;;4.18;;
5841;SDS011;2947;52.276;9.946;2023-02-22T15:10:28;10.23;;;4.85;;
5841;SDS011;2947;52.276;9.946;2023-02-22T15:13:01;8.57;;;4.53;;
5841;SDS011;2947;52.276;9.946;2023-02-22T15:15:34;10.35;;;5.00;;
5841;SDS011;2947;52.276;9.946;2023-02-22T15:18:17;10.48;;;5.75;;
5841;SDS011;2947;52.276;9.946;2023-02-22T15:21:04;10.50;;;4.90;;
5841;SDS011;2947;52.276;9.946;2023-02-22T15:23:40;9.10;;;4.38;;
5841;SDS011;2947;52.276;9.946;2023-02-22T15:26:55;7.65;;;3.90;;
5841;SDS011;2947;52.276;9.946;2023-02-22T15:29:12;7.55;;;3.97;;
5841;SDS011;2947;52.276;9.946;2023-02-22T15:31:43;11.52;;;4.35;;
5841;SDS011;2947;52.276;9.946;2023-02-22T15:36:39;8.13;;;4.82;;
5841;SDS011;2947;52.276;9.946;2023-02-22T15:42:15;7.63;;;4.57;;
5841;SDS011;2947;52.276;9.946;2023-02-22T15:44:51;7.40;;;4.22;;
5841;SDS011;2947;52.276;9.946;2023-02-22T15:47:26;6.93;;;4.45;;
5841;SDS011;2947;52.276;9.946;2023-02-22T15:52:48;8.30;;;4.55;;
5841;SDS011;2947;52.276;9.946;2023-02-22T15:55:18;6.28;;;3.92;;
5841;SDS011;2947;52.276;9.946;2023-02-22T15:57:48;6.90;;;4.90;;
5841;SDS011;2947;52.276;9.946;2023-02-22T16:00:22;9.35;;;4.32;;
5841;SDS011;2947;52.276;9.946;2023-02-22T16:03:01;10.27;;;3.75;;
5841;SDS011;2947;52.276;9.946;2023-02-22T16:05:49;10.27;;;4.88;;
5841;SDS011;2947;52.276;9.946;2023-02-22T16:08:20;11.23;;;6.38;;
5841;SDS011;2947;52.276;9.946;2023-02-22T16:11:01;14.10;;;7.93;;
5841;SDS011;2947;52.276;9.946;2023-02-22T16:13:33;9.52;;;5.15;;
5841;SDS011;2947;52.276;9.946;2023-02-22T16:16:01;7.63;;;4.10;;
5841;SDS011;2947;52.276;9.946;2023-02-22T16:18:47;8.65;;;4.10;;
5841;SDS011;2947;52.276;9.946;2023-02-22T16:21:15;9.60;;;3.83;;
5841;SDS011;2947;52.276;9.946;2023-02-22T16:23:48;8.63;;;3.55;;
5841;SDS011;2947;52.276;9.946;2023-02-22T16:26:24;7.40;;;4.22;;
5841;SDS011;2947;52.276;9.946;2023-02-22T16:28:55;10.27;;;5.85;;
5841;SDS011;2947;52.276;9.946;2023-02-22T16:31:30;13.93;;;8.15;;
5841;SDS011;2947;52.276;9.946;2023-02-22T16:33:59;20.77;;;12.68;;
5841;SDS011;2947;52.276;9.946;2023-02-22T16:39:29;10.50;;;5.32;;
5841;SDS011;2947;52.276;9.946;2023-02-22T16:41:57;7.65;;;5.28;;
5841;SDS011;2947;52.276;9.946;2023-02-22T16:44:48;10.15;;;5.82;;
5841;SDS011;2947;52.276;9.946;2023-02-22T16:47:15;8.77;;;5.32;;
5841;SDS011;2947;52.276;9.946;2023-02-22T16:49:41;8.65;;;5.72;;
5841;SDS011;2947;52.276;9.946;2023-02-22T16:52:07;9.52;;;4.95;;
5841;SDS011;2947;52.276;9.946;2023-02-22T16:54:34;8.95;;;4.82;;
5841;SDS011;2947;52.276;9.946;2023-02-22T16:57:09;8.02;;;5.25;;
5841;SDS011;2947;52.276;9.946;2023-02-22T16:59:45;8.07;;;5.03;;
5841;SDS011;2947;52.276;9.946;2023-02-22T17:02:14;9.65;;;4.85;;
5841;SDS011;2947;52.276;9.946;2023-02-22T17:04:41;14.30;;;7.40;;
5841;SDS011;2947;52.276;9.946;2023-02-22T17:07:13;17.92;;;10.13;;
5841;SDS011;2947;52.276;9.946;2023-02-22T17:09:48;16.92;;;9.23;;
5841;SDS011;2947;52.276;9.946;2023-02-22T17:12:17;20.50;;;9.98;;
5841;SDS011;2947;52.276;9.946;2023-02-22T17:14:43;18.85;;;9.63;;
5841;SDS011;2947;52.276;9.946;2023-02-22T17:17:11;21.52;;;9.80;;
5841;SDS011;2947;52.276;9.946;2023-02-22T17:19:37;16.90;;;10.07;;
5841;SDS011;2947;52.276;9.946;2023-02-22T17:22:03;18.02;;;10.38;;
5841;SDS011;2947;52.276;9.946;2023-02-22T17:24:30;20.15;;;11.90;;
5841;SDS011;2947;52.276;9.946;2023-02-22T17:26:58;21.58;;;11.27;;
5841;SDS011;2947;52.276;9.946;2023-02-22T17:29:26;20.92;;;11.73;;
5841;SDS011;2947;52.276;9.946;2023-02-22T17:31:53;22.50;;;12.10;;
5841;SDS011;2947;52.276;9.946;2023-02-22T17:34:19;23.40;;;12.45;;
5841;SDS011;2947;52.276;9.946;2023-02-22T17:36:45;20.52;;;11.75;;
5841;SDS011;2947;52.276;9.946;2023-02-22T17:39:10;22.17;;;12.60;;
5841;SDS011;2947;52.276;9.946;2023-02-22T17:41:37;20.87;;;11.60;;
5841;SDS011;2947;52.276;9.946;2023-02-22T17:44:03;22.07;;;13.83;;
5841;SDS011;2947;52.276;9.946;2023-02-22T17:46:29;28.20;;;16.30;;
5841;SDS011;2947;52.276;9.946;2023-02-22T17:48:54;27.77;;;15.67;;
5841;SDS011;2947;52.276;9.946;2023-02-22T17:51:21;22.67;;;13.50;;
5841;SDS011;2947;52.276;9.946;2023-02-22T17:53:49;21.30;;;12.50;;